sensor_id;sensor_type;location;lat;lon;timestamp;temperature;humidity
12421;DHT22;6275;43.688;1.408;2023-04-01T00:01:27;10.40;99.90
12421;DHT22;6275;43.688;1.408;2023-04-01T00:03:54;10.40;99.90
12421;DHT22;6275;43.688;1.408;2023-04-01T00:06:22;10.40;99.90
12421;DHT22;6275;43.688;1.408;2023-04-01T00:08:49;10.40;99.90
12421;DHT22;6275;43.688;1.408;2023-04-01T00:11:16;10.30;99.90
12421;DHT22;6275;43.688;1.408;2023-04-01T00:13:46;10.30;99.90
12421;DHT22;6275;43.688;1.408;2023-04-01T00:16:14;10.30;99.90
12421;DHT22;6275;43.688;1.408;2023-04-01T00:18:47;10.20;99.90
12421;DHT22;6275;43.688;1.408;2023-04-01T00:21:15;10.30;99.90
12421;DHT22;6275;43.688;1.408;2023-04-01T00:23:43;10.30;99.90
12421;DHT22;6275;43.688;1.408;2023-04-01T00:26:10;10.20;99.90
12421;DHT22;6275;43.688;1.408;2023-04-01T00:28:39;10.20;99.90
12421;DHT22;6275;43.688;1.408;2023-04-01T00:31:08;10.30;99.90
12421;DHT22;6275;43.688;1.408;2023-04-01T00:33:37;10.40;99.90
12421;DHT22;6275;43.688;1.408;2023-04-01T00:36:10;10.40;99.90
12421;DHT22;6275;43.688;1.408;2023-04-01T00:38:38;10.40;99.90
12421;DHT22;6275;43.688;1.408;2023-04-01T00:41:06;10.40;99.90
12421;DHT22;6275;43.688;1.408;2023-04-01T00:43:34;10.50;99.90
12421;DHT22;6275;43.688;1.408;2023-04-01T00:46:01;10.50;99.90
12421;DHT22;6275;43.688;1.408;2023-04-01T00:48:34;10.40;99.90
12421;DHT22;6275;43.688;1.408;2023-04-01T00:51:09;10.40;99.90
12421;DHT22;6275;43.688;1.408;2023-04-01T00:53:44;10.40;99.90
12421;DHT22;6275;43.688;1.408;2023-04-01T00:56:17;10.40;99.90
12421;DHT22;6275;43.688;1.408;2023-04-01T00:58:51;10.40;99.90
12421;DHT22;6275;43.688;1.408;2023-04-01T01:01:23;10.40;99.90
12421;DHT22;6275;43.688;1.408;2023-04-01T01:03:50;10.40;99.90
12421;DHT22;6275;43.688;1.408;2023-04-01T01:06:46;10.40;99.90
12421;DHT22;6275;43.688;1.408;2023-04-01T01:09:37;10.40;99.90
12421;DHT22;6275;43.688;1.408;2023-04-01T01:28:29;10.50;99.90
12421;DHT22;6275;43.688;1.408;2023-04-01T01:36:44;10.60;99.90
12421;DHT22;6275;43.688;1.408;2023-04-01T01:39:12;10.50;99.90
12421;DHT22;6275;43.688;1.408;2023-04-01T01:41:42;10.50;99.90
12421;DHT22;6275;43.688;1.408;2023-04-01T01:44:12;10.50;99.90
12421;DHT22;6275;43.688;1.408;2023-04-01T01:46:42;10.40;99.90
12421;DHT22;6275;43.688;1.408;2023-04-01T01:49:10;10.30;99.90
12421;DHT22;6275;43.688;1.408;2023-04-01T01:51:39;10.30;99.90
12421;DHT22;6275;43.688;1.408;2023-04-01T01:54:06;10.30;99.90
12421;DHT22;6275;43.688;1.408;2023-04-01T01:56:34;10.30;99.90
12421;DHT22;6275;43.688;1.408;2023-04-01T01:59:08;10.30;99.90
12421;DHT22;6275;43.688;1.408;2023-04-01T02:01:41;10.30;99.90
12421;DHT22;6275;43.688;1.408;2023-04-01T02:04:09;10.30;99.90
12421;DHT22;6275;43.688;1.408;2023-04-01T02:06:39;10.30;99.90
12421;DHT22;6275;43.688;1.408;2023-04-01T02:09:10;10.30;99.90
12421;DHT22;6275;43.688;1.408;2023-04-01T02:11:56;10.30;99.90
12421;DHT22;6275;43.688;1.408;2023-04-01T02:14:28;10.20;99.90
12421;DHT22;6275;43.688;1.408;2023-04-01T02:17:00;10.10;99.90
12421;DHT22;6275;43.688;1.408;2023-04-01T02:19:36;10.00;99.90
12421;DHT22;6275;43.688;1.408;2023-04-01T02:22:08;9.90;99.90
12421;DHT22;6275;43.688;1.408;2023-04-01T02:24:37;9.80;99.90
12421;DHT22;6275;43.688;1.408;2023-04-01T02:27:05;9.80;99.90
12421;DHT22;6275;43.688;1.408;2023-04-01T02:29:32;9.90;99.90
12421;DHT22;6275;43.688;1.408;2023-04-01T02:32:00;10.00;99.90
12421;DHT22;6275;43.688;1.408;2023-04-01T02:34:27;10.00;99.90
12421;DHT22;6275;43.688;1.408;2023-04-01T02:36:55;10.00;99.90
12421;DHT22;6275;43.688;1.408;2023-04-01T02:39:23;10.10;99.90
12421;DHT22;6275;43.688;1.408;2023-04-01T02:41:52;10.10;99.90
12421;DHT22;6275;43.688;1.408;2023-04-01T02:44:19;10.10;99.90
12421;DHT22;6275;43.688;1.408;2023-04-01T02:46:46;10.10;99.90
12421;DHT22;6275;43.688;1.408;2023-04-01T02:49:13;10.00;99.90
12421;DHT22;6275;43.688;1.408;2023-04-01T02:51:40;10.10;99.90
12421;DHT22;6275;43.688;1.408;2023-04-01T02:54:07;10.10;99.90
12421;DHT22;6275;43.688;1.408;2023-04-01T02:56:34;10.10;99.90
12421;DHT22;6275;43.688;1.408;2023-04-01T02:59:01;10.10;99.90
12421;DHT22;6275;43.688;1.408;2023-04-01T03:01:28;10.10;99.90
12421;DHT22;6275;43.688;1.408;2023-04-01T03:03:55;10.10;99.90
12421;DHT22;6275;43.688;1.408;2023-04-01T03:06:22;10.10;99.90
12421;DHT22;6275;43.688;1.408;2023-04-01T03:08:49;10.10;99.90
12421;DHT22;6275;43.688;1.408;2023-04-01T03:11:16;10.10;99.90
12421;DHT22;6275;43.688;1.408;2023-04-01T03:13:43;10.10;99.90
12421;DHT22;6275;43.688;1.408;2023-04-01T03:16:10;10.00;99.90
12421;DHT22;6275;43.688;1.408;2023-04-01T03:18:37;10.10;99.90
12421;DHT22;6275;43.688;1.408;2023-04-01T03:21:18;10.00;99.90
12421;DHT22;6275;43.688;1.408;2023-04-01T03:23:45;10.00;99.90
12421;DHT22;6275;43.688;1.408;2023-04-01T03:26:12;10.00;99.90
12421;DHT22;6275;43.688;1.408;2023-04-01T03:28:40;10.00;99.90
12421;DHT22;6275;43.688;1.408;2023-04-01T03:31:07;10.00;99.90
12421;DHT22;6275;43.688;1.408;2023-04-01T03:33:34;10.00;99.90
12421;DHT22;6275;43.688;1.408;2023-04-01T03:36:01;10.00;99.90
12421;DHT22;6275;43.688;1.408;2023-04-01T03:38:28;9.90;99.90
12421;DHT22;6275;43.688;1.408;2023-04-01T03:40:54;9.90;99.90
12421;DHT22;6275;43.688;1.408;2023-04-01T03:43:21;10.00;99.90
12421;DHT22;6275;43.688;1.408;2023-04-01T03:45:50;9.90;99.90
12421;DHT22;6275;43.688;1.408;2023-04-01T03:48:18;9.90;99.90
12421;DHT22;6275;43.688;1.408;2023-04-01T03:50:46;9.90;99.90
12421;DHT22;6275;43.688;1.408;2023-04-01T03:53:13;9.90;99.90
12421;DHT22;6275;43.688;1.408;2023-04-01T03:55:41;9.90;99.90
12421;DHT22;6275;43.688;1.408;2023-04-01T03:58:09;9.90;99.90
12421;DHT22;6275;43.688;1.408;2023-04-01T04:00:36;9.90;99.90
12421;DHT22;6275;43.688;1.408;2023-04-01T04:03:03;9.90;99.90
12421;DHT22;6275;43.688;1.408;2023-04-01T04:05:30;9.80;99.90
12421;DHT22;6275;43.688;1.408;2023-04-01T04:07:58;9.80;99.90
12421;DHT22;6275;43.688;1.408;2023-04-01T04:10:25;9.80;99.90
12421;DHT22;6275;43.688;1.408;2023-04-01T04:12:52;9.70;99.90
12421;DHT22;6275;43.688;1.408;2023-04-01T04:15:19;9.70;99.90
12421;DHT22;6275;43.688;1.408;2023-04-01T04:17:46;9.60;99.90
12421;DHT22;6275;43.688;1.408;2023-04-01T04:20:14;9.70;99.90
12421;DHT22;6275;43.688;1.408;2023-04-01T04:22:41;9.70;99.90
12421;DHT22;6275;43.688;1.408;2023-04-01T04:25:08;9.70;99.90
12421;DHT22;6275;43.688;1.408;2023-04-01T04:27:35;9.70;99.90
12421;DHT22;6275;43.688;1.408;2023-04-01T04:30:04;9.70;99.90
12421;DHT22;6275;43.688;1.408;2023-04-01T04:32:31;9.70;99.90
12421;DHT22;6275;43.688;1.408;2023-04-01T04:34:58;9.50;99.90
12421;DHT22;6275;43.688;1.408;2023-04-01T04:37:25;9.40;99.90
12421;DHT22;6275;43.688;1.408;2023-04-01T04:39:52;9.30;99.90
12421;DHT22;6275;43.688;1.408;2023-04-01T04:42:19;9.40;99.90
12421;DHT22;6275;43.688;1.408;2023-04-01T04:44:46;9.40;99.90
12421;DHT22;6275;43.688;1.408;2023-04-01T04:47:13;9.40;99.90
12421;DHT22;6275;43.688;1.408;2023-04-01T04:49:40;9.20;99.90
12421;DHT22;6275;43.688;1.408;2023-04-01T04:52:07;9.10;99.90
12421;DHT22;6275;43.688;1.408;2023-04-01T04:54:34;9.00;99.90
12421;DHT22;6275;43.688;1.408;2023-04-01T04:57:01;9.10;99.90
12421;DHT22;6275;43.688;1.408;2023-04-01T04:59:28;9.10;99.90
12421;DHT22;6275;43.688;1.408;2023-04-01T05:01:55;9.10;99.90
12421;DHT22;6275;43.688;1.408;2023-04-01T05:04:22;9.10;99.90
12421;DHT22;6275;43.688;1.408;2023-04-01T05:06:49;9.10;99.90
12421;DHT22;6275;43.688;1.408;2023-04-01T05:09:18;9.20;99.90
12421;DHT22;6275;43.688;1.408;2023-04-01T05:11:45;9.20;99.90
12421;DHT22;6275;43.688;1.408;2023-04-01T05:14:14;9.20;99.90
12421;DHT22;6275;43.688;1.408;2023-04-01T05:16:41;9.30;99.90
12421;DHT22;6275;43.688;1.408;2023-04-01T05:19:09;9.30;99.90
12421;DHT22;6275;43.688;1.408;2023-04-01T05:21:36;9.30;99.90
12421;DHT22;6275;43.688;1.408;2023-04-01T05:24:03;9.30;99.90
12421;DHT22;6275;43.688;1.408;2023-04-01T05:26:30;9.30;99.90
12421;DHT22;6275;43.688;1.408;2023-04-01T05:28:57;9.20;99.90
12421;DHT22;6275;43.688;1.408;2023-04-01T05:31:24;9.00;99.90
12421;DHT22;6275;43.688;1.408;2023-04-01T05:33:51;8.90;99.90
12421;DHT22;6275;43.688;1.408;2023-04-01T05:36:18;8.80;99.90
12421;DHT22;6275;43.688;1.408;2023-04-01T05:38:45;8.70;99.90
12421;DHT22;6275;43.688;1.408;2023-04-01T05:41:13;8.60;99.90
12421;DHT22;6275;43.688;1.408;2023-04-01T05:43:41;8.60;99.90
12421;DHT22;6275;43.688;1.408;2023-04-01T05:46:09;8.50;99.90
12421;DHT22;6275;43.688;1.408;2023-04-01T05:48:36;8.50;99.90
12421;DHT22;6275;43.688;1.408;2023-04-01T05:51:03;8.50;99.90
12421;DHT22;6275;43.688;1.408;2023-04-01T05:53:31;8.50;99.90
12421;DHT22;6275;43.688;1.408;2023-04-01T05:56:02;8.50;99.90
12421;DHT22;6275;43.688;1.408;2023-04-01T05:58:30;8.50;99.90
12421;DHT22;6275;43.688;1.408;2023-04-01T06:01:04;8.50;99.90
12421;DHT22;6275;43.688;1.408;2023-04-01T06:03:39;8.50;99.90
12421;DHT22;6275;43.688;1.408;2023-04-01T06:06:14;8.60;99.90
12421;DHT22;6275;43.688;1.408;2023-04-01T06:08:42;8.60;99.90
12421;DHT22;6275;43.688;1.408;2023-04-01T06:32:58;8.70;99.90
12421;DHT22;6275;43.688;1.408;2023-04-01T06:44:35;9.00;99.90
12421;DHT22;6275;43.688;1.408;2023-04-01T06:57:55;9.50;99.90
12421;DHT22;6275;43.688;1.408;2023-04-01T07:00:30;9.70;99.90
12421;DHT22;6275;43.688;1.408;2023-04-01T07:03:21;9.90;99.90
12421;DHT22;6275;43.688;1.408;2023-04-01T07:05:49;10.20;99.90
12421;DHT22;6275;43.688;1.408;2023-04-01T07:08:26;10.30;99.90
12421;DHT22;6275;43.688;1.408;2023-04-01T07:11:24;10.30;99.90
12421;DHT22;6275;43.688;1.408;2023-04-01T07:14:11;10.50;99.90
12421;DHT22;6275;43.688;1.408;2023-04-01T07:16:51;10.50;99.90
12421;DHT22;6275;43.688;1.408;2023-04-01T07:19:31;10.20;99.90
12421;DHT22;6275;43.688;1.408;2023-04-01T07:22:09;10.10;99.90
12421;DHT22;6275;43.688;1.408;2023-04-01T07:24:41;10.00;99.90
12421;DHT22;6275;43.688;1.408;2023-04-01T07:27:12;10.00;99.90
12421;DHT22;6275;43.688;1.408;2023-04-01T07:29:40;10.00;99.90
12421;DHT22;6275;43.688;1.408;2023-04-01T07:48:45;10.70;99.90
12421;DHT22;6275;43.688;1.408;2023-04-01T07:53:53;11.10;99.90
12421;DHT22;6275;43.688;1.408;2023-04-01T07:59:05;11.10;99.90
12421;DHT22;6275;43.688;1.408;2023-04-01T08:01:58;11.10;99.90
12421;DHT22;6275;43.688;1.408;2023-04-01T08:23:19;11.00;99.90
12421;DHT22;6275;43.688;1.408;2023-04-01T08:28:56;10.70;99.90
12421;DHT22;6275;43.688;1.408;2023-04-01T08:34:07;11.00;99.90
12421;DHT22;6275;43.688;1.408;2023-04-01T08:36:43;11.20;99.90
12421;DHT22;6275;43.688;1.408;2023-04-01T08:39:48;11.30;99.90
12421;DHT22;6275;43.688;1.408;2023-04-01T08:42:22;11.40;99.90
12421;DHT22;6275;43.688;1.408;2023-04-01T08:56:20;12.10;99.90
12421;DHT22;6275;43.688;1.408;2023-04-01T22:06:01;7.80;99.90
12421;DHT22;6275;43.688;1.408;2023-04-01T22:11:46;7.90;99.90
12421;DHT22;6275;43.688;1.408;2023-04-01T22:14:26;7.90;99.90
12421;DHT22;6275;43.688;1.408;2023-04-01T22:22:16;7.80;99.90
12421;DHT22;6275;43.688;1.408;2023-04-01T22:32:29;7.60;99.90
12421;DHT22;6275;43.688;1.408;2023-04-01T22:35:21;7.50;99.90
12421;DHT22;6275;43.688;1.408;2023-04-01T22:55:50;7.50;99.90
12421;DHT22;6275;43.688;1.408;2023-04-01T22:58:33;7.50;99.90
12421;DHT22;6275;43.688;1.408;2023-04-01T23:01:07;7.50;99.90
12421;DHT22;6275;43.688;1.408;2023-04-01T23:03:46;7.50;99.90
12421;DHT22;6275;43.688;1.408;2023-04-01T23:06:20;7.50;99.90
12421;DHT22;6275;43.688;1.408;2023-04-01T23:08:59;7.50;99.90
12421;DHT22;6275;43.688;1.408;2023-04-01T23:11:33;7.50;99.90
12421;DHT22;6275;43.688;1.408;2023-04-01T23:20:12;7.50;99.90
12421;DHT22;6275;43.688;1.408;2023-04-01T23:25:35;7.50;99.90
12421;DHT22;6275;43.688;1.408;2023-04-01T23:38:24;7.50;99.90
12421;DHT22;6275;43.688;1.408;2023-04-01T23:40:54;7.60;99.90
12421;DHT22;6275;43.688;1.408;2023-04-01T23:43:33;7.60;99.90
12421;DHT22;6275;43.688;1.408;2023-04-01T23:46:03;7.60;99.90
12421;DHT22;6275;43.688;1.408;2023-04-01T23:48:50;7.60;99.90
12421;DHT22;6275;43.688;1.408;2023-04-01T23:51:35;7.70;99.90
12421;DHT22;6275;43.688;1.408;2023-04-01T23:56:48;7.70;99.90
12421;DHT22;6275;43.688;1.408;2023-04-01T23:59:24;7.70;99.90
